createdAt,value
2019-03-17T00:02:09.281Z,8.90
2019-03-17T00:04:41.215Z,8.90
2019-03-17T00:07:11.910Z,8.90
2019-03-17T00:09:42.635Z,9.00
2019-03-17T00:12:14.993Z,8.90
2019-03-17T00:14:47.507Z,8.90
2019-03-17T00:17:18.360Z,9.00
2019-03-17T00:19:52.235Z,9.00
2019-03-17T00:22:24.557Z,9.10
2019-03-17T00:25:08.601Z,9.00
2019-03-17T00:27:31.384Z,9.00
2019-03-17T00:30:02.701Z,8.90
2019-03-17T00:32:35.915Z,9.00
2019-03-17T00:35:06.999Z,8.90
2019-03-17T00:37:38.008Z,8.90
2019-03-17T00:40:09.045Z,9.00
2019-03-17T00:42:40.885Z,8.90
2019-03-17T00:45:13.509Z,8.90
2019-03-17T00:47:53.386Z,9.00
2019-03-17T00:50:24.285Z,9.00
2019-03-17T00:52:55.012Z,9.00
2019-03-17T00:55:25.936Z,9.10
2019-03-17T00:58:03.069Z,9.00
2019-03-17T01:00:33.827Z,9.00
2019-03-17T01:03:06.700Z,9.10
2019-03-17T01:05:37.933Z,9.20
2019-03-17T01:08:08.650Z,9.10
2019-03-17T01:10:39.276Z,9.20
2019-03-17T01:13:09.828Z,9.10
2019-03-17T01:19:35.772Z,9.00
2019-03-17T01:22:12.966Z,9.10
2019-03-17T01:24:46.687Z,9.00
2019-03-17T01:27:17.372Z,9.10
2019-03-17T01:29:51.031Z,9.10
2019-03-17T01:32:21.924Z,9.00
2019-03-17T01:34:52.759Z,8.90
2019-03-17T01:37:23.523Z,8.90
2019-03-17T01:39:54.639Z,8.80
2019-03-17T01:42:26.522Z,8.80
2019-03-17T01:44:57.356Z,8.90
2019-03-17T01:47:29.658Z,8.90
2019-03-17T01:50:01.961Z,8.80
2019-03-17T01:52:32.597Z,8.80
2019-03-17T01:55:05.312Z,8.80
2019-03-17T01:57:36.930Z,8.90
2019-03-17T02:00:08.726Z,9.00
2019-03-17T02:02:39.506Z,9.00
2019-03-17T02:05:22.115Z,9.10
2019-03-17T02:07:47.295Z,9.00
2019-03-17T02:10:21.237Z,9.00
2019-03-17T02:12:54.924Z,8.90
2019-03-17T02:15:25.479Z,8.90
2019-03-17T02:17:58.236Z,8.90
2019-03-17T02:20:28.829Z,8.90
2019-03-17T02:23:00.878Z,8.90
2019-03-17T02:25:31.388Z,8.80
2019-03-17T02:28:02.277Z,8.90
2019-03-17T02:30:35.909Z,8.80
2019-03-17T02:33:06.468Z,8.70
2019-03-17T02:35:39.796Z,8.80
2019-03-17T02:38:09.365Z,8.80
2019-03-17T02:40:41.468Z,8.70
2019-03-17T02:43:12.031Z,8.70
2019-03-17T02:45:43.389Z,8.80
2019-03-17T02:48:13.960Z,8.70
2019-03-17T02:50:44.603Z,8.80
2019-03-17T02:53:16.344Z,8.80
2019-03-17T02:55:47.554Z,8.80
2019-03-17T02:58:18.324Z,8.80
2019-03-17T03:00:48.987Z,8.80
2019-03-17T03:03:21.039Z,8.90
2019-03-17T03:05:55.733Z,8.90
2019-03-17T03:08:29.450Z,8.80
2019-03-17T03:11:05.665Z,8.90
2019-03-17T03:13:40.037Z,8.80
2019-03-17T03:16:11.232Z,8.90
2019-03-17T03:18:49.120Z,8.90
2019-03-17T03:21:22.665Z,8.80
2019-03-17T03:23:53.377Z,8.90
2019-03-17T03:26:24.220Z,8.90
2019-03-17T03:28:54.923Z,8.90
2019-03-17T03:31:26.522Z,8.80
2019-03-17T03:33:57.160Z,8.80
2019-03-17T03:36:27.814Z,8.80
2019-03-17T03:38:59.689Z,8.80
2019-03-17T03:41:31.973Z,8.80
2019-03-17T03:44:02.576Z,8.80
2019-03-17T03:46:34.780Z,8.80
2019-03-17T03:49:09.861Z,8.70
2019-03-17T03:51:42.406Z,8.80
2019-03-17T03:54:13.282Z,8.70
2019-03-17T03:56:50.976Z,8.80
2019-03-17T03:59:21.834Z,8.70
2019-03-17T04:01:53.999Z,8.80
2019-03-17T04:04:26.141Z,8.80
2019-03-17T04:06:56.749Z,8.80
2019-03-17T04:09:27.415Z,8.70
2019-03-17T04:12:00.572Z,8.70
2019-03-17T04:14:33.942Z,8.70
2019-03-17T04:17:04.469Z,8.80
2019-03-17T04:19:36.651Z,8.80
2019-03-17T04:22:09.827Z,8.80
2019-03-17T04:24:40.720Z,8.60
2019-03-17T04:27:16.028Z,8.60
2019-03-17T04:29:46.781Z,8.70
2019-03-17T04:32:19.417Z,8.60
2019-03-17T04:34:49.981Z,8.60
2019-03-17T04:37:22.884Z,8.60
2019-03-17T04:39:53.589Z,8.60
2019-03-17T04:42:28.745Z,8.60
2019-03-17T04:44:59.392Z,8.60
2019-03-17T04:47:30.207Z,8.50
2019-03-17T04:50:01.072Z,8.50
2019-03-17T04:52:37.807Z,8.50
2019-03-17T04:55:09.711Z,8.60
2019-03-17T04:57:42.993Z,8.60
2019-03-17T05:00:13.904Z,8.50
2019-03-17T05:02:46.599Z,8.50
2019-03-17T05:05:17.459Z,8.50
2019-03-17T05:07:48.638Z,8.60
2019-03-17T05:10:22.750Z,8.50
2019-03-17T05:12:52.827Z,8.50
2019-03-17T05:15:26.563Z,8.60
2019-03-17T05:17:57.537Z,8.60
2019-03-17T05:20:30.790Z,8.70
2019-03-17T05:23:05.888Z,8.70
2019-03-17T05:25:36.255Z,8.60
2019-03-17T05:28:09.928Z,8.60
2019-03-17T05:30:42.960Z,8.70
2019-03-17T05:33:13.575Z,8.70
2019-03-17T05:35:44.289Z,8.70
2019-03-17T05:38:15.613Z,8.70
2019-03-17T05:40:51.718Z,8.70
2019-03-17T05:43:22.269Z,8.70
2019-03-17T05:45:52.906Z,8.70
2019-03-17T05:48:23.575Z,8.80
2019-03-17T05:50:55.726Z,8.80
2019-03-17T05:53:26.213Z,8.80
2019-03-17T05:55:59.491Z,8.80
2019-03-17T05:58:30.329Z,8.80
2019-03-17T06:01:00.967Z,8.80
2019-03-17T06:03:31.639Z,8.80
2019-03-17T06:06:02.437Z,8.80
2019-03-17T06:08:38.395Z,8.90
2019-03-17T06:11:12.276Z,8.90
2019-03-17T06:13:43.473Z,8.90
2019-03-17T06:16:15.648Z,9.10
2019-03-17T06:18:48.286Z,9.00
2019-03-17T06:21:23.291Z,9.00
2019-03-17T06:23:57.285Z,9.00
2019-03-17T06:26:27.891Z,9.00
2019-03-17T06:28:59.634Z,9.00
2019-03-17T06:31:30.119Z,9.00
2019-03-17T06:34:03.063Z,9.10
2019-03-17T06:36:38.072Z,9.00
2019-03-17T06:39:11.965Z,9.10
2019-03-17T06:41:48.270Z,9.10
2019-03-17T06:44:18.965Z,9.10
2019-03-17T06:46:51.001Z,9.10
2019-03-17T06:49:24.862Z,9.20
2019-03-17T06:51:56.937Z,9.20
2019-03-17T06:54:27.900Z,9.30
2019-03-17T06:57:02.400Z,9.30
2019-03-17T06:59:34.945Z,9.30
2019-03-17T07:02:05.807Z,9.40
2019-03-17T07:04:40.905Z,9.40
2019-03-17T07:07:12.656Z,9.40
2019-03-17T07:09:46.067Z,9.50
2019-03-17T07:12:19.084Z,9.60
2019-03-17T07:14:49.674Z,9.50
2019-03-17T07:17:23.527Z,9.50
2019-03-17T07:19:59.836Z,9.50
2019-03-17T07:22:37.325Z,9.50
2019-03-17T07:25:09.542Z,9.50
2019-03-17T07:27:45.141Z,9.60
2019-03-17T07:30:22.101Z,9.60
2019-03-17T07:32:53.985Z,9.50
2019-03-17T07:35:24.708Z,9.60
2019-03-17T07:37:57.041Z,9.70
2019-03-17T07:40:27.484Z,9.90
2019-03-17T07:42:58.252Z,9.90
2019-03-17T07:45:29.126Z,9.80
2019-03-17T07:48:00.021Z,9.70
2019-03-17T07:50:30.648Z,9.80
2019-03-17T07:53:03.806Z,10.00
2019-03-17T07:55:36.465Z,10.10
2019-03-17T07:58:08.805Z,10.20
2019-03-17T08:00:39.773Z,10.20
2019-03-17T08:03:10.667Z,10.30
2019-03-17T08:05:41.235Z,10.30
2019-03-17T08:08:11.812Z,9.90
2019-03-17T08:10:42.361Z,10.50
2019-03-17T08:13:13.009Z,11.00
2019-03-17T08:15:44.051Z,10.90
2019-03-17T08:18:14.674Z,10.90
2019-03-17T08:20:45.420Z,11.60
2019-03-17T08:23:16.226Z,12.20
2019-03-17T08:25:46.812Z,11.80
2019-03-17T08:28:17.487Z,11.90
2019-03-17T08:30:53.434Z,11.80
2019-03-17T08:33:20.835Z,12.10
2019-03-17T08:35:54.058Z,11.90
2019-03-17T08:38:24.730Z,11.80
2019-03-17T08:40:56.254Z,11.60
2019-03-17T08:43:27.541Z,12.70
2019-03-17T08:45:58.403Z,12.80
2019-03-17T08:48:29.091Z,12.40
2019-03-17T08:50:59.749Z,12.40
2019-03-17T08:53:30.845Z,12.80
2019-03-17T08:56:01.686Z,12.30
2019-03-17T08:58:32.306Z,11.80
2019-03-17T09:01:03.065Z,12.00
2019-03-17T09:03:33.883Z,11.80
2019-03-17T09:06:04.897Z,11.70
2019-03-17T09:08:39.790Z,12.00
2019-03-17T09:11:10.471Z,12.40
2019-03-17T09:13:41.145Z,12.10
2019-03-17T09:16:11.997Z,12.40
2019-03-17T09:18:42.670Z,12.80
2019-03-17T09:21:13.468Z,13.50
2019-03-17T09:23:44.067Z,13.40
2019-03-17T09:26:14.806Z,13.80
2019-03-17T09:28:47.027Z,15.00
2019-03-17T09:35:00.783Z,15.10
2019-03-17T09:37:33.295Z,14.80
2019-03-17T09:40:04.406Z,15.70
2019-03-17T09:42:35.037Z,15.00
2019-03-17T09:45:06.487Z,15.50
2019-03-17T09:47:37.089Z,14.70
2019-03-17T09:53:49.948Z,14.60
2019-03-17T10:00:14.732Z,14.60
2019-03-17T10:06:28.275Z,13.50
2019-03-17T10:09:01.144Z,12.80
2019-03-17T10:11:32.477Z,12.60
2019-03-17T10:14:06.308Z,12.50
2019-03-17T10:16:37.068Z,12.40
2019-03-17T10:19:07.959Z,12.50
2019-03-17T10:21:39.153Z,12.60
2019-03-17T10:24:10.014Z,12.50
2019-03-17T10:26:40.576Z,12.50
2019-03-17T10:29:11.119Z,12.30
2019-03-17T10:31:41.630Z,12.30
2019-03-17T10:34:12.431Z,12.30
2019-03-17T10:36:43.188Z,12.20
2019-03-17T10:39:13.864Z,12.10
2019-03-17T10:41:44.517Z,12.20
2019-03-17T10:44:15.204Z,12.20
2019-03-17T10:46:46.205Z,12.10
2019-03-17T10:49:17.068Z,12.10
2019-03-17T10:51:47.723Z,12.10
2019-03-17T10:54:18.366Z,12.30
2019-03-17T10:56:49.019Z,12.30
2019-03-17T10:59:19.915Z,12.30
2019-03-17T11:01:50.765Z,12.30
2019-03-17T11:04:24.585Z,12.30
2019-03-17T11:06:55.213Z,12.20
2019-03-17T11:09:26.065Z,12.20
2019-03-17T11:11:57.153Z,12.30
2019-03-17T11:14:28.393Z,12.30
2019-03-17T11:16:59.380Z,12.30
2019-03-17T11:19:30.191Z,12.30
2019-03-17T11:22:06.016Z,12.30
2019-03-17T11:24:36.922Z,12.40
2019-03-17T11:27:07.633Z,12.60
2019-03-17T11:29:43.877Z,12.70
2019-03-17T11:32:14.660Z,12.50
2019-03-17T12:45:34.468Z,11.80
2019-03-17T12:48:05.104Z,11.80
2019-03-17T12:50:35.743Z,11.70
2019-03-17T12:53:07.925Z,11.60
2019-03-17T12:55:41.476Z,11.50
2019-03-17T12:58:11.380Z,11.50
2019-03-17T13:00:42.240Z,10.30
2019-03-17T13:03:13.271Z,9.60
2019-03-17T13:05:44.133Z,9.10
2019-03-17T13:08:15.838Z,8.70
2019-03-17T13:10:46.436Z,8.30
2019-03-17T13:13:17.245Z,8.10
2019-03-17T13:15:47.823Z,8.00
2019-03-17T13:18:18.442Z,7.90
2019-03-17T13:24:42.935Z,7.90
2019-03-17T13:27:13.749Z,7.70
2019-03-17T13:33:26.417Z,7.60
2019-03-17T13:35:57.967Z,7.40
2019-03-17T13:38:29.530Z,7.50
2019-03-17T14:13:05.957Z,7.30
2019-03-17T14:15:36.821Z,7.10
2019-03-17T14:18:07.721Z,7.00
2019-03-17T14:20:38.312Z,7.00
2019-03-17T14:23:09.148Z,7.20
2019-03-17T14:25:39.861Z,7.30
2019-03-17T14:28:10.513Z,7.30
2019-03-17T14:30:41.444Z,7.30
2019-03-17T14:33:12.238Z,7.30
2019-03-17T14:35:45.654Z,7.30
2019-03-17T14:38:16.652Z,7.20
2019-03-17T14:40:53.946Z,7.10
2019-03-17T14:43:21.562Z,7.10
2019-03-17T14:49:34.737Z,7.30
2019-03-17T14:52:05.913Z,7.40
2019-03-17T14:54:38.826Z,7.40
2019-03-17T14:57:15.676Z,7.40
2019-03-17T14:59:49.542Z,7.30
2019-03-17T15:02:22.944Z,7.30
2019-03-17T15:04:53.765Z,7.40
2019-03-17T15:07:24.306Z,7.40
2019-03-17T15:09:55.086Z,7.40
2019-03-17T15:12:25.645Z,7.40
2019-03-17T15:14:58.663Z,7.40
2019-03-17T15:17:31.888Z,7.50
2019-03-17T15:20:02.415Z,7.50
2019-03-17T15:22:33.954Z,7.70
2019-03-17T15:25:06.657Z,7.70
2019-03-17T15:27:41.668Z,7.80
2019-03-17T15:30:17.505Z,7.90
2019-03-17T15:32:48.211Z,7.90
2019-03-17T15:35:18.753Z,7.90
2019-03-17T15:37:50.495Z,7.90
2019-03-17T15:40:21.149Z,7.80
2019-03-17T15:42:54.433Z,7.80
2019-03-17T15:45:25.397Z,7.70
2019-03-17T15:47:56.050Z,7.70
2019-03-17T15:50:26.971Z,7.60
2019-03-17T15:53:03.197Z,7.60
2019-03-17T15:55:33.988Z,7.60
2019-03-17T16:05:04.985Z,7.50
2019-03-17T16:11:17.134Z,7.50
2019-03-17T16:13:47.721Z,7.50
2019-03-17T16:16:18.453Z,7.50
2019-03-17T16:18:49.373Z,7.40
2019-03-17T16:21:19.875Z,7.50
2019-03-17T16:23:50.532Z,7.50
2019-03-17T16:26:21.513Z,7.50
2019-03-17T16:28:52.393Z,7.50
2019-03-17T16:31:26.899Z,7.50
2019-03-17T16:33:58.270Z,7.40
2019-03-17T16:36:28.902Z,7.40
2019-03-17T16:38:59.887Z,7.40
2019-03-17T16:41:42.630Z,7.40
2019-03-17T16:44:03.673Z,7.30
2019-03-17T16:46:34.350Z,7.40
2019-03-17T16:49:06.936Z,7.30
2019-03-17T16:51:40.700Z,7.30
2019-03-17T16:54:11.458Z,7.30
2019-03-17T16:56:45.213Z,7.20
2019-03-17T16:59:16.663Z,7.20
2019-03-17T17:01:50.397Z,7.30
2019-03-17T17:04:24.833Z,7.30
2019-03-17T17:11:02.588Z,7.30
2019-03-17T17:13:33.195Z,7.30
2019-03-17T17:16:03.997Z,7.40
2019-03-17T17:18:35.312Z,7.40
2019-03-17T17:21:08.167Z,7.40
2019-03-17T17:23:38.866Z,7.00
2019-03-17T17:26:09.509Z,7.00
2019-03-17T17:28:40.189Z,6.80
2019-03-17T17:31:14.146Z,6.70
2019-03-17T17:33:48.362Z,6.50
2019-03-17T17:36:21.600Z,6.50
2019-03-17T17:38:55.220Z,6.40
2019-03-17T17:41:26.217Z,6.40
2019-03-17T17:43:58.372Z,6.50
2019-03-17T17:46:32.302Z,6.30
2019-03-17T17:49:03.125Z,6.40
2019-03-17T17:51:33.774Z,6.40
2019-03-17T17:54:07.489Z,6.40
2019-03-17T17:56:41.296Z,6.30
2019-03-17T17:59:18.985Z,6.40
2019-03-17T18:06:06.484Z,6.30
2019-03-17T18:08:37.670Z,6.20
2019-03-17T18:11:08.602Z,6.20
2019-03-17T18:13:39.510Z,6.30
2019-03-17T18:16:10.177Z,6.20
2019-03-17T18:22:24.716Z,6.20
2019-03-17T18:24:58.450Z,6.00
2019-03-17T18:27:30.675Z,6.00
2019-03-17T18:30:01.566Z,5.90
2019-03-17T18:32:38.209Z,5.80
2019-03-17T18:35:08.228Z,5.80
2019-03-17T18:37:38.980Z,5.70
2019-03-17T18:40:12.933Z,5.70
2019-03-17T18:42:43.828Z,5.70
2019-03-17T18:45:16.538Z,5.70
2019-03-17T18:47:47.464Z,5.60
2019-03-17T18:50:23.046Z,5.60
2019-03-17T18:52:53.650Z,5.50
2019-03-17T18:59:20.618Z,5.50
2019-03-17T19:01:51.351Z,5.50
2019-03-17T19:04:23.319Z,5.50
2019-03-17T19:06:58.016Z,5.40
2019-03-17T19:09:28.604Z,5.40
2019-03-17T19:11:59.612Z,5.20
2019-03-17T19:14:33.261Z,5.20
2019-03-17T19:17:04.267Z,5.20
2019-03-17T19:19:37.105Z,5.20
2019-03-17T19:22:09.679Z,5.10
2019-03-17T19:24:42.839Z,5.20
2019-03-17T19:27:13.797Z,5.10
2019-03-17T19:29:44.756Z,5.20
2019-03-17T19:32:19.634Z,5.20
2019-03-17T19:34:50.224Z,5.20
2019-03-17T19:37:23.530Z,5.20
2019-03-17T19:40:01.197Z,5.10
2019-03-17T19:42:31.929Z,5.20
2019-03-17T19:45:04.774Z,5.20
2019-03-17T19:47:35.344Z,5.10
2019-03-17T19:50:06.370Z,5.10
2019-03-17T19:52:37.423Z,5.00
2019-03-17T19:55:10.569Z,4.90
2019-03-17T19:57:43.025Z,4.80
2019-03-17T20:00:15.485Z,4.70
2019-03-17T20:02:50.503Z,4.70
2019-03-17T20:05:22.408Z,4.60
2019-03-17T20:07:52.980Z,4.60
2019-03-17T20:10:23.698Z,4.60
2019-03-17T20:16:38.176Z,4.50
2019-03-17T20:19:11.867Z,4.50
2019-03-17T20:21:42.457Z,4.50
2019-03-17T20:24:13.143Z,4.50
2019-03-17T20:26:44.329Z,4.70
2019-03-17T20:29:14.880Z,4.70
2019-03-17T20:31:45.467Z,4.70
2019-03-17T20:34:16.101Z,4.60
2019-03-17T20:36:46.571Z,4.50
2019-03-17T20:39:20.021Z,4.50
2019-03-17T20:41:57.930Z,4.60
2019-03-17T20:44:35.164Z,4.70
2019-03-17T20:47:10.467Z,4.50
2019-03-17T20:49:42.361Z,4.40
2019-03-17T20:52:12.930Z,4.40
2019-03-17T20:54:43.827Z,4.40
2019-03-17T20:57:18.454Z,4.50
2019-03-17T21:03:31.368Z,4.50
2019-03-17T21:06:04.867Z,4.50
2019-03-17T21:12:22.582Z,4.40
2019-03-17T21:14:58.629Z,4.30
2019-03-17T21:17:30.953Z,4.50
2019-03-17T21:20:05.527Z,4.40
2019-03-17T21:22:36.387Z,4.40
2019-03-17T21:25:08.991Z,4.40
2019-03-17T21:27:39.833Z,4.20
2019-03-17T21:30:13.815Z,4.10
2019-03-17T21:32:47.913Z,4.30
2019-03-17T21:39:14.413Z,4.40
2019-03-17T21:41:49.965Z,4.40
2019-03-17T21:44:22.880Z,4.50
2019-03-17T21:46:56.389Z,4.40
2019-03-17T21:53:22.209Z,4.30
2019-03-17T21:55:54.362Z,4.50
2019-03-17T21:58:24.913Z,4.70
2019-03-17T22:00:57.295Z,4.60
2019-03-17T22:03:27.827Z,4.50
2019-03-17T22:05:58.492Z,4.40
2019-03-17T22:08:29.135Z,4.50
2019-03-17T22:10:59.726Z,4.50
2019-03-17T22:13:30.621Z,4.50
2019-03-17T22:16:01.282Z,4.30
2019-03-17T22:18:32.042Z,4.40
2019-03-17T22:21:04.271Z,4.40
2019-03-17T22:23:35.647Z,4.40
2019-03-17T22:26:06.243Z,4.50
2019-03-17T22:28:38.105Z,4.50
2019-03-17T22:31:10.627Z,4.60
2019-03-17T22:33:41.838Z,4.40
2019-03-17T22:36:14.192Z,4.40
2019-03-17T22:38:46.178Z,4.40
2019-03-17T22:41:19.749Z,4.40
2019-03-17T22:47:32.355Z,4.60
2019-03-17T22:50:05.839Z,4.60
2019-03-17T22:52:39.694Z,4.60
2019-03-17T22:55:10.494Z,4.40
2019-03-17T22:57:43.786Z,4.50
2019-03-17T23:00:19.527Z,4.40
2019-03-17T23:02:54.973Z,4.50
2019-03-17T23:05:27.983Z,4.50
2019-03-17T23:07:58.689Z,4.40
2019-03-17T23:10:29.616Z,4.40
2019-03-17T23:13:00.231Z,4.40
2019-03-17T23:15:35.844Z,4.40
2019-03-17T23:18:06.057Z,4.50
2019-03-17T23:20:39.183Z,4.30
2019-03-17T23:23:11.370Z,4.40
2019-03-17T23:25:42.132Z,4.50
2019-03-17T23:28:13.013Z,4.40
2019-03-17T23:30:45.884Z,4.20
2019-03-17T23:33:19.311Z,4.30
2019-03-17T23:35:54.361Z,4.20
2019-03-17T23:38:25.257Z,4.20
2019-03-17T23:40:58.903Z,4.10
2019-03-17T23:43:29.476Z,4.00
2019-03-17T23:45:59.984Z,4.00
2019-03-17T23:48:33.583Z,4.10
2019-03-17T23:51:05.120Z,4.10
2019-03-17T23:53:37.449Z,4.10
2019-03-17T23:56:10.545Z,4.10
2019-03-17T23:58:43.383Z,4.00
